Time;durP1;ratioP1;P1;durP2;ratioP2;P2;SDS_P1;SDS_P2;PMS_P1;PMS_P2;Temp;Humidity;BMP_temperature;BMP_pressure;BME280_temperature;BME280_humidity;BME280_pressure;Samples;Min_cycle;Max_cycle;Signal;HPM_P1;HPM_P2
2021/03/13 00:01:07;;;;;;;24.55;15.45;;;;;;;3.58;74.21;99503.22;1788039;77;25309;-68
2021/03/13 00:03:33;;;;;;;26.05;14.93;;;;;;;3.57;74.35;99492.53;1754421;78;26411;-68
2021/03/13 00:06:00;;;;;;;28.20;14.10;;;;;;;3.55;74.37;99490.10;1784944;77;25693;-68
2021/03/13 00:08:26;;;;;;;24.82;14.73;;;;;;;3.52;74.40;99493.45;1785415;77;25903;-68
2021/03/13 00:10:53;;;;;;;21.70;14.00;;;;;;;3.52;74.39;99492.17;1760235;78;25252;-71
2021/03/13 00:13:19;;;;;;;25.97;14.00;;;;;;;3.53;74.39;99492.48;1762800;79;25680;-71
2021/03/13 00:15:46;;;;;;;20.52;14.20;;;;;;;3.52;74.43;99489.09;1774519;78;26322;-71
2021/03/13 00:18:14;;;;;;;22.17;14.65;;;;;;;3.51;74.42;99486.16;1773712;80;26647;-71
2021/03/13 00:20:43;;;;;;;21.12;13.55;;;;;;;3.49;74.33;99475.63;1783191;78;25701;-68
2021/03/13 00:23:09;;;;;;;24.77;14.70;;;;;;;3.46;74.38;99477.20;1770323;78;25761;-68
2021/03/13 00:25:37;;;;;;;23.92;13.58;;;;;;;3.44;74.43;99472.69;1763680;78;25640;-66
2021/03/13 00:28:05;;;;;;;22.77;13.93;;;;;;;3.42;74.45;99465.55;1749154;79;25651;-68
2021/03/13 00:30:36;;;;;;;20.20;12.78;;;;;;;3.42;74.51;99468.13;1758791;78;25623;-68
2021/03/13 00:33:10;;;;;;;21.68;12.15;;;;;;;3.41;74.52;99466.48;1769463;79;25679;-68
2021/03/13 00:35:38;;;;;;;20.57;13.55;;;;;;;3.37;74.46;99469.83;1789436;78;26483;-67
2021/03/13 00:38:05;;;;;;;21.60;12.50;;;;;;;3.38;74.51;99464.19;1779893;78;25789;-68
2021/03/13 00:40:34;;;;;;;23.55;12.40;;;;;;;3.36;74.45;99459.17;1779973;78;25711;-67
2021/03/13 00:43:02;;;;;;;24.87;13.68;;;;;;;3.36;74.36;99461.76;1780528;78;26440;-68
2021/03/13 00:45:29;;;;;;;23.98;13.20;;;;;;;3.37;74.43;99455.62;1782400;78;25256;-68
2021/03/13 00:47:57;;;;;;;20.70;12.33;;;;;;;3.39;74.35;99460.66;1797021;77;25715;-68
2021/03/13 00:50:27;;;;;;;21.97;13.95;;;;;;;3.39;74.32;99450.34;1797105;77;25692;-68
2021/03/13 00:52:53;;;;;;;22.67;13.03;;;;;;;3.38;74.34;99444.81;1796691;77;25921;-67
2021/03/13 00:55:20;;;;;;;23.55;13.35;;;;;;;3.40;74.29;99437.75;1806156;77;25767;-67
2021/03/13 00:57:48;;;;;;;20.30;13.08;;;;;;;3.36;74.29;99435.93;1789037;77;25742;-67
2021/03/13 01:00:19;;;;;;;21.97;13.48;;;;;;;3.36;74.30;99432.54;1798195;77;25673;-67
2021/03/13 01:02:47;;;;;;;23.25;13.75;;;;;;;3.36;74.27;99437.70;1782369;77;25348;-67
2021/03/13 01:05:15;;;;;;;20.97;11.97;;;;;;;3.29;74.10;99434.38;1806772;77;26002;-67
2021/03/13 01:07:43;;;;;;;21.12;11.85;;;;;;;3.24;74.00;99435.27;1797082;77;26127;-67
2021/03/13 01:10:21;;;;;;;20.17;11.68;;;;;;;3.20;74.09;99435.23;1813966;77;25632;-67
2021/03/13 01:12:48;;;;;;;19.30;11.22;;;;;;;3.17;74.02;99433.41;1811948;77;25864;-67
2021/03/13 01:15:19;;;;;;;20.02;11.97;;;;;;;3.16;74.04;99436.94;1794018;77;25717;-67
2021/03/13 01:17:47;;;;;;;20.52;12.13;;;;;;;3.11;73.95;99437.37;1793889;78;26878;-67
2021/03/13 01:20:17;;;;;;;17.95;11.33;;;;;;;3.09;73.95;99440.08;1817017;77;25740;-67
2021/03/13 01:22:44;;;;;;;20.92;11.88;;;;;;;3.05;74.01;99434.03;1769687;78;25664;-67
2021/03/13 01:25:14;;;;;;;19.32;11.75;;;;;;;3.04;74.16;99425.48;1760514;78;25664;-67
2021/03/13 01:27:41;;;;;;;21.50;11.10;;;;;;;3.00;74.07;99417.70;1774740;78;25883;-67
2021/03/13 01:30:12;;;;;;;20.05;11.45;;;;;;;2.98;74.20;99422.18;1783684;79;25947;-67
2021/03/13 01:32:39;;;;;;;24.40;11.18;;;;;;;2.93;74.12;99420.97;1766494;78;25678;-67
2021/03/13 01:35:08;;;;;;;20.23;10.98;;;;;;;2.86;74.11;99415.08;1770944;78;25312;-67
2021/03/13 01:37:34;;;;;;;16.87;10.70;;;;;;;2.80;74.11;99410.45;1775718;78;25304;-67
2021/03/13 01:40:01;;;;;;;19.48;11.08;;;;;;;2.76;74.24;99414.28;1751350;79;25683;-69
2021/03/13 01:42:27;;;;;;;17.30;10.80;;;;;;;2.73;74.25;99404.69;1766719;78;25671;-69
2021/03/13 01:44:55;;;;;;;18.92;11.12;;;;;;;2.71;74.29;99400.17;1775599;78;25378;-70
2021/03/13 01:47:25;;;;;;;22.87;12.30;;;;;;;2.72;74.43;99393.56;1777139;78;25626;-70
2021/03/13 01:49:53;;;;;;;23.35;11.83;;;;;;;2.73;74.48;99395.66;1775749;77;26712;-71
2021/03/13 01:52:21;;;;;;;19.37;11.65;;;;;;;2.72;74.50;99385.02;1792344;79;25282;-71
2021/03/13 01:54:48;;;;;;;21.17;11.15;;;;;;;2.67;74.41;99386.71;1805408;78;25682;-71
2021/03/13 01:57:19;;;;;;;19.35;11.88;;;;;;;2.64;74.49;99386.51;1807601;77;25794;-71
2021/03/13 01:59:47;;;;;;;22.35;11.85;;;;;;;2.58;74.62;99389.64;1810682;77;25677;-70
2021/03/13 02:02:16;;;;;;;19.40;11.12;;;;;;;2.58;74.68;99388.36;1782200;78;25807;-71
2021/03/13 02:04:43;;;;;;;17.50;10.60;;;;;;;2.56;74.67;99390.73;1746461;80;25892;-71
2021/03/13 02:07:31;;;;;;;20.48;12.03;;;;;;;2.52;74.71;99386.34;1745810;79;25821;-71
2021/03/13 02:10:06;;;;;;;19.00;11.00;;;;;;;2.54;74.77;99384.92;1761834;79;25909;-71
2021/03/13 02:13:03;;;;;;;20.57;10.90;;;;;;;2.57;74.73;99384.16;1764539;78;25696;-72
2021/03/13 02:16:14;;;;;;;16.62;10.25;;;;;;;2.55;74.66;99377.03;1743684;79;25414;-72
2021/03/13 02:18:50;;;;;;;;;;;;;;;2.53;74.61;99381.98;1756984;80;25729;-70
2021/03/13 02:21:25;;;;;;;21.48;11.28;;;;;;;2.55;74.80;99382.67;1756642;80;26563;-70
2021/03/13 02:24:11;;;;;;;22.17;12.03;;;;;;;2.53;74.78;99378.92;1750534;80;25729;-71
2021/03/13 02:27:16;;;;;;;20.72;11.25;;;;;;;2.52;74.74;99377.79;1774378;78;26357;-70
2021/03/13 02:30:13;;;;;;;23.27;11.03;;;;;;;2.49;74.73;99378.88;1769843;78;25772;-71
2021/03/13 02:32:58;;;;;;;21.75;11.38;;;;;;;2.42;74.67;99379.88;1777699;78;25261;-72
2021/03/13 02:35:36;;;;;;;18.23;11.20;;;;;;;2.39;74.82;99376.30;1761996;77;26757;-72
2021/03/13 02:38:08;;;;;;;19.05;10.10;;;;;;;2.41;74.78;99374.40;1799000;77;25750;-71
2021/03/13 02:40:37;;;;;;;24.40;11.83;;;;;;;2.44;74.87;99366.38;1786491;77;25641;-72
2021/03/13 02:43:08;;;;;;;22.27;11.43;;;;;;;2.41;74.65;99361.50;1778949;77;25745;-71
2021/03/13 02:45:40;;;;;;;21.15;11.85;;;;;;;2.40;74.74;99353.89;1798070;77;25711;-71
2021/03/13 02:48:10;;;;;;;22.65;12.07;;;;;;;2.39;74.69;99358.24;1800404;77;25766;-71
2021/03/13 02:50:39;;;;;;;21.12;12.53;;;;;;;2.36;74.69;99352.55;1745188;80;25821;-72
2021/03/13 02:53:08;;;;;;;22.82;12.20;;;;;;;2.39;74.85;99353.56;1816385;77;25745;-71
2021/03/13 02:55:36;;;;;;;24.23;11.78;;;;;;;2.38;74.78;99348.08;1800955;77;25557;-71
2021/03/13 02:58:05;;;;;;;21.50;11.97;;;;;;;2.38;74.70;99350.18;1791643;78;25794;-71
2021/03/13 03:00:38;;;;;;;25.97;11.80;;;;;;;2.38;74.75;99351.95;1775984;78;26719;-72
2021/03/13 03:03:06;;;;;;;22.58;12.30;;;;;;;2.39;74.74;99353.09;1769066;77;25273;-71
2021/03/13 03:05:55;;;;;;;18.60;10.82;;;;;;;2.42;74.91;99345.07;1756642;78;25659;-70
2021/03/13 03:08:24;;;;;;;21.52;11.83;;;;;;;2.42;74.66;99350.70;1755354;80;25268;-70
2021/03/13 03:10:52;;;;;;;21.05;11.25;;;;;;;2.43;74.69;99344.63;1729498;79;25380;-70
2021/03/13 03:13:19;;;;;;;21.75;11.25;;;;;;;2.45;74.52;99342.69;1759236;78;25865;-70
2021/03/13 03:15:47;;;;;;;21.35;11.12;;;;;;;2.44;74.59;99341.08;1739163;78;25668;-69
2021/03/13 03:18:18;;;;;;;19.32;9.65;;;;;;;2.41;74.38;99334.43;1769926;78;25817;-70
2021/03/13 03:20:48;;;;;;;21.48;11.28;;;;;;;2.40;74.52;99328.11;1759233;79;26550;-70
2021/03/13 03:23:15;;;;;;;22.77;11.60;;;;;;;2.44;74.50;99318.67;1752869;80;26396;-70
2021/03/13 03:25:42;;;;;;;20.20;10.45;;;;;;;2.39;74.46;99318.27;1775594;78;25859;-70
2021/03/13 03:28:13;;;;;;;26.57;11.45;;;;;;;2.38;74.47;99319.23;1769911;79;25596;-67
2021/03/13 03:30:47;;;;;;;21.23;11.38;;;;;;;2.40;74.52;99315.22;1716491;80;25592;-67
2021/03/13 03:33:14;;;;;;;25.43;12.60;;;;;;;2.42;74.51;99311.55;1760276;78;25580;-67
2021/03/13 03:35:43;;;;;;;19.92;10.90;;;;;;;2.43;74.44;99308.52;1806124;77;25810;-67
2021/03/13 03:38:11;;;;;;;19.32;10.30;;;;;;;2.41;74.48;99310.41;1752719;80;25738;-68
2021/03/13 03:40:40;;;;;;;20.00;10.48;;;;;;;2.37;74.38;99315.05;1798348;78;25819;-67
2021/03/13 03:43:43;;;;;;;19.02;9.83;;;;;;;2.35;74.43;99311.78;1744720;80;25604;-67
2021/03/13 03:46:12;;;;;;;21.23;10.50;;;;;;;2.35;74.49;99304.53;1762735;79;25602;-67
2021/03/13 03:48:39;;;;;;;21.42;10.90;;;;;;;2.40;74.42;99303.61;1762594;80;25686;-70
2021/03/13 03:51:16;;;;;;;16.77;10.03;;;;;;;2.43;74.77;99305.45;1785869;77;26669;-70
2021/03/13 03:53:49;;;;;;;19.95;10.05;;;;;;;2.43;74.77;99305.45;1788515;78;25832;-70
2021/03/13 03:56:20;;;;;;;21.37;11.00;;;;;;;2.49;74.46;99301.98;1780314;77;25650;-70
2021/03/13 03:58:48;;;;;;;23.55;10.68;;;;;;;2.50;74.40;99291.52;1779728;79;25809;-70
2021/03/13 04:01:15;;;;;;;23.67;11.68;;;;;;;2.52;74.36;99293.97;1765874;79;25948;-70
2021/03/13 04:03:50;;;;;;;22.22;10.60;;;;;;;2.55;74.43;99296.27;1783381;78;25810;-70
2021/03/13 04:06:17;;;;;;;22.15;11.38;;;;;;;2.57;74.30;99290.50;1780620;78;25809;-70
2021/03/13 04:08:46;;;;;;;24.20;10.88;;;;;;;2.57;74.15;99286.63;1774452;78;25826;-70
2021/03/13 04:11:20;;;;;;;21.07;12.47;;;;;;;2.54;74.28;99281.27;1762186;80;25628;-70
2021/03/13 04:13:49;;;;;;;23.52;12.00;;;;;;;2.59;74.33;99279.09;1776518;78;25745;-70
2021/03/13 04:16:17;;;;;;;22.82;11.63;;;;;;;2.60;74.26;99269.58;1782046;77;26763;-71
2021/03/13 04:18:44;;;;;;;21.50;10.55;;;;;;;2.59;74.13;99258.91;1772253;79;25788;-70
2021/03/13 04:21:12;;;;;;;23.92;11.15;;;;;;;2.58;74.20;99257.30;1782343;78;26018;-68
2021/03/13 04:23:43;;;;;;;21.10;11.30;;;;;;;2.58;74.13;99258.58;1767902;78;26459;-67
2021/03/13 04:26:09;;;;;;;24.50;11.57;;;;;;;2.56;74.14;99250.16;1793230;78;25736;-67
2021/03/13 04:28:36;;;;;;;21.25;11.22;;;;;;;2.46;74.07;99217.98;1771106;78;25847;-67
2021/03/13 04:31:05;;;;;;;28.05;12.95;;;;;;;2.46;74.07;99217.98;1770571;78;26701;-68
2021/03/13 04:33:34;;;;;;;23.47;12.58;;;;;;;2.47;74.22;99219.59;1768115;79;25707;-71
2021/03/13 04:36:01;;;;;;;25.08;12.43;;;;;;;2.63;74.19;99233.19;1745759;78;25835;-70
2021/03/13 04:38:28;;;;;;;23.75;12.00;;;;;;;2.62;74.11;99231.09;1766259;78;25889;-70
2021/03/13 04:40:55;;;;;;;27.07;12.70;;;;;;;2.62;74.10;99230.28;1770468;78;26511;-70
2021/03/13 04:43:25;;;;;;;25.05;11.88;;;;;;;2.63;74.07;99228.02;1718477;79;25716;-70
2021/03/13 04:45:58;;;;;;;23.70;12.33;;;;;;;2.67;74.08;99229.34;1749907;78;25899;-70
2021/03/13 04:48:28;;;;;;;24.40;12.33;;;;;;;2.69;74.10;99229.22;1774954;78;25642;-67
2021/03/13 04:51:00;;;;;;;26.35;13.03;;;;;;;2.71;73.97;99222.16;1780717;78;25698;-67
2021/03/13 04:53:28;;;;;;;24.72;13.88;;;;;;;2.72;74.00;99216.84;1765588;79;25790;-67
2021/03/13 04:55:54;;;;;;;25.60;13.65;;;;;;;2.69;73.88;99219.70;1779949;78;25665;-67
2021/03/13 04:58:21;;;;;;;29.37;14.83;;;;;;;2.69;73.88;99219.70;1776632;78;25907;-67
2021/03/13 05:00:48;;;;;;;26.30;13.28;;;;;;;2.69;73.86;99215.84;1743626;79;25854;-67
2021/03/13 05:03:15;;;;;;;31.00;14.68;;;;;;;2.71;73.88;99215.71;1771359;78;25662;-67
2021/03/13 05:05:42;;;;;;;28.87;13.85;;;;;;;2.72;73.95;99213.45;1760889;78;27842;-67
2021/03/13 05:08:08;;;;;;;26.75;13.45;;;;;;;2.75;73.92;99208.00;1745418;80;25863;-67
2021/03/13 05:10:36;;;;;;;25.20;14.23;;;;;;;2.78;73.91;99199.97;1765340;78;25304;-68
2021/03/13 05:13:02;;;;;;;27.58;13.03;;;;;;;2.81;73.86;99209.55;1800677;77;26560;-68
2021/03/13 05:15:29;;;;;;;26.60;14.85;;;;;;;2.83;73.75;99200.36;1780123;77;25935;-68
2021/03/13 05:17:55;;;;;;;27.73;13.53;;;;;;;2.88;73.66;99204.12;1794188;77;27928;-68
2021/03/13 05:20:22;;;;;;;31.50;15.32;;;;;;;2.88;73.66;99204.12;1779782;77;25798;-68
2021/03/13 05:22:49;;;;;;;29.85;13.95;;;;;;;2.92;73.66;99199.52;1792752;77;25723;-68
2021/03/13 05:25:19;;;;;;;27.70;14.25;;;;;;;2.94;73.58;99190.31;1761455;78;25988;-68
2021/03/13 05:27:45;;;;;;;26.07;13.48;;;;;;;2.93;73.51;99182.25;1755302;80;25619;-68
2021/03/13 05:30:13;;;;;;;27.30;14.28;;;;;;;2.89;73.42;99185.58;1752826;80;26868;-68
2021/03/13 05:32:40;;;;;;;26.37;12.60;;;;;;;2.91;73.47;99183.67;1748941;80;25778;-68
2021/03/13 05:35:09;;;;;;;25.82;15.00;;;;;;;2.92;73.48;99193.06;1767291;79;25639;-68
2021/03/13 05:37:36;;;;;;;29.50;14.58;;;;;;;2.93;73.48;99193.87;1757349;80;25844;-68
2021/03/13 05:40:09;;;;;;;28.00;14.53;;;;;;;2.98;73.58;99187.80;1754518;80;25724;-68
2021/03/13 05:42:38;;;;;;;33.08;16.07;;;;;;;2.99;73.49;99192.80;1730725;80;25734;-69
2021/03/13 05:45:07;;;;;;;28.57;15.10;;;;;;;3.01;73.51;99195.24;1758916;80;25776;-70
2021/03/13 05:47:37;;;;;;;32.38;14.53;;;;;;;3.07;73.43;99195.95;1774632;78;25723;-70
2021/03/13 05:50:08;;;;;;;27.07;14.07;;;;;;;3.14;73.07;99201.32;1735910;80;25444;-70
2021/03/13 05:52:37;;;;;;;29.20;14.20;;;;;;;3.21;73.30;99203.18;1769165;78;25826;-70
2021/03/13 05:55:06;;;;;;;24.20;13.55;;;;;;;3.30;72.94;99207.94;1755617;79;25801;-71
2021/03/13 05:57:33;;;;;;;27.30;14.45;;;;;;;3.35;72.90;99200.56;1807786;77;25525;-70
2021/03/13 06:00:01;;;;;;;29.70;14.33;;;;;;;3.40;72.62;99215.63;1790074;77;25931;-70
2021/03/13 06:02:30;;;;;;;27.67;12.88;;;;;;;3.44;72.75;99215.20;1789235;77;25822;-70
2021/03/13 06:04:56;;;;;;;26.20;14.95;;;;;;;3.47;72.55;99222.65;1777542;78;25723;-70
2021/03/13 06:07:24;;;;;;;26.35;13.32;;;;;;;3.51;72.66;99221.38;1808236;77;25952;-70
2021/03/13 06:09:57;;;;;;;21.42;11.90;;;;;;;3.55;72.20;99221.91;1790143;77;25839;-70
2021/03/13 06:12:25;;;;;;;25.15;13.58;;;;;;;3.60;72.19;99232.63;1802195;77;25814;-71
2021/03/13 06:14:53;;;;;;;27.50;12.43;;;;;;;3.64;72.19;99231.84;1808432;77;26381;-72
2021/03/13 06:17:23;;;;;;;21.77;11.25;;;;;;;3.67;71.32;99231.05;1784975;77;25926;-75
2021/03/13 06:19:57;;;;;;;22.43;11.07;;;;;;;3.74;71.58;99233.87;1782923;78;26606;-77
2021/03/13 06:22:39;;;;;;;25.68;11.80;;;;;;;3.81;71.31;99245.70;1800801;78;25365;-74
2021/03/13 06:25:18;;;;;;;23.35;11.20;;;;;;;3.87;70.71;99242.52;1789055;78;25870;-74
2021/03/13 06:27:52;;;;;;;23.83;12.15;;;;;;;3.94;70.67;99251.30;1783055;77;25358;-74
2021/03/13 06:30:18;;;;;;;25.90;11.40;;;;;;;3.97;70.90;99249.22;1787825;78;25646;-74
2021/03/13 06:32:45;;;;;;;24.23;12.37;;;;;;;4.01;70.65;99262.68;1785138;77;25759;-74
2021/03/13 06:35:30;;;;;;;23.87;12.35;;;;;;;4.04;70.44;99265.41;1802689;77;25588;-74
2021/03/13 06:37:58;;;;;;;25.17;11.63;;;;;;;4.04;70.02;99270.13;1800078;77;25763;-75
2021/03/13 06:40:35;;;;;;;20.90;10.82;;;;;;;4.04;70.15;99277.05;1794841;78;25704;-74
2021/03/13 06:43:23;;;;;;;20.85;11.43;;;;;;;4.00;70.50;99282.52;1790323;78;25447;-74
2021/03/13 06:46:06;;;;;;;23.75;10.90;;;;;;;3.94;71.11;99283.13;1816731;77;25769;-74
2021/03/13 06:48:38;;;;;;;21.17;10.08;;;;;;;3.88;72.00;99274.69;1745009;80;25921;-75
2021/03/13 06:51:17;;;;;;;20.97;10.50;;;;;;;3.81;72.84;99289.63;1772615;78;25883;-75
2021/03/13 06:53:44;;;;;;;24.35;12.37;;;;;;;3.71;73.66;99301.32;1728134;80;25901;-73
2021/03/13 06:56:12;;;;;;;21.07;11.15;;;;;;;3.62;74.18;99297.86;1737410;80;25676;-73
2021/03/13 06:58:40;;;;;;;21.12;8.90;;;;;;;3.52;76.02;99301.00;1784195;77;26444;-73
2021/03/13 07:01:08;;;;;;;19.48;10.48;;;;;;;3.40;76.43;99307.31;1783014;78;25808;-73
2021/03/13 07:03:50;;;;;;;21.40;10.63;;;;;;;3.22;78.08;99306.81;1782946;78;25763;-73
2021/03/13 07:06:18;;;;;;;19.98;10.35;;;;;;;3.11;78.35;99308.30;1787851;78;26002;-73
2021/03/13 07:08:46;;;;;;;17.75;9.50;;;;;;;3.03;79.11;99314.16;1766038;79;25431;-73
2021/03/13 07:11:17;;;;;;;18.25;10.20;;;;;;;2.97;78.92;99317.78;1757940;78;25754;-73
2021/03/13 07:13:47;;;;;;;21.90;10.85;;;;;;;2.88;79.67;99318.96;1771258;78;25358;-73
2021/03/13 07:16:35;;;;;;;19.67;9.95;;;;;;;2.83;80.01;99317.28;1789190;77;25637;-73
2021/03/13 07:19:06;;;;;;;20.75;9.93;;;;;;;2.78;80.16;99321.23;1767032;78;25760;-73
2021/03/13 07:21:35;;;;;;;19.67;10.58;;;;;;;2.66;80.76;99303.83;1766913;78;25811;-73
2021/03/13 07:24:05;;;;;;;20.08;9.65;;;;;;;2.69;80.13;99313.06;1778745;78;26319;-73
2021/03/13 07:26:44;;;;;;;20.32;10.08;;;;;;;2.66;81.97;99321.41;1786876;78;26375;-73
2021/03/13 07:29:12;;;;;;;16.35;9.38;;;;;;;2.63;80.73;99322.98;1800511;77;25751;-73
2021/03/13 07:31:42;;;;;;;18.55;9.15;;;;;;;2.49;81.28;99289.91;1786212;77;26571;-73
2021/03/13 07:34:18;;;;;;;15.83;9.80;;;;;;;2.57;81.07;99305.97;1805148;77;26190;-73
2021/03/13 07:36:52;;;;;;;16.73;9.63;;;;;;;2.63;80.98;99304.12;1780762;76;25640;-72
2021/03/13 07:39:25;;;;;;;17.85;10.30;;;;;;;2.68;80.89;99298.55;1761347;79;25886;-72
2021/03/13 07:42:06;;;;;;;17.20;9.63;;;;;;;2.73;80.95;99298.45;1777153;78;25676;-73
2021/03/13 07:44:32;;;;;;;17.92;8.80;;;;;;;2.74;80.99;99283.30;1801004;77;25990;-73
2021/03/13 07:47:00;;;;;;;13.30;8.25;;;;;;;2.82;81.24;99283.89;1773829;78;25345;-73
2021/03/13 07:49:27;;;;;;;17.57;9.63;;;;;;;2.85;81.37;99283.61;1785014;77;25876;-73
2021/03/13 07:51:54;;;;;;;14.68;8.68;;;;;;;2.90;81.43;99285.28;1785991;77;26467;-73
2021/03/13 07:54:22;;;;;;;13.25;7.78;;;;;;;2.91;81.33;99285.61;1796791;77;26353;-73
2021/03/13 07:56:49;;;;;;;14.80;8.75;;;;;;;2.96;81.41;99287.77;1792622;77;25660;-73
2021/03/13 07:59:46;;;;;;;18.35;9.40;;;;;;;3.04;81.51;99298.20;1721466;80;25358;-73
2021/03/13 08:02:34;;;;;;;15.15;8.58;;;;;;;3.05;81.44;99305.78;1765828;78;25742;-68
2021/03/13 08:05:15;;;;;;;12.35;7.83;;;;;;;3.08;81.57;99305.97;1738914;80;26056;-68
2021/03/13 08:07:58;;;;;;;19.92;8.80;;;;;;;3.03;81.80;99302.55;1675472;82;25767;-67
2021/03/13 08:10:49;;;;;;;14.35;8.33;;;;;;;3.03;81.77;99304.33;1691060;82;26346;-68
2021/03/13 08:13:30;;;;;;;;;;;;;;;3.01;81.83;99299.30;1693498;82;25791;-74
2021/03/13 08:16:12;;;;;;;16.37;7.60;;;;;;;2.98;82.43;99300.06;1685080;82;25910;-74
2021/03/13 08:18:53;;;;;;;16.93;8.75;;;;;;;2.95;82.97;99303.73;1677119;82;26017;-72
2021/03/13 08:21:27;;;;;;;13.45;7.83;;;;;;;2.94;82.76;99300.00;1738241;80;26511;-73
2021/03/13 08:23:59;;;;;;;14.05;7.00;;;;;;;2.95;82.74;99300.35;1724541;80;25535;-73
2021/03/13 08:26:40;;;;;;;12.37;7.60;;;;;;;2.97;83.88;99301.81;1713504;80;25823;-73
2021/03/13 08:29:08;;;;;;;13.72;7.70;;;;;;;3.03;83.41;99301.27;1725376;80;25743;-73
2021/03/13 08:31:45;;;;;;;12.20;7.53;;;;;;;3.14;83.59;99298.13;1723816;80;25341;-73
2021/03/13 08:34:23;;;;;;;12.18;7.35;;;;;;;3.21;83.70;99296.12;1725144;80;25829;-73
2021/03/13 08:36:51;;;;;;;11.70;6.40;;;;;;;3.32;83.62;99295.13;1730122;81;25913;-73
2021/03/13 08:39:26;;;;;;;12.07;6.30;;;;;;;3.40;83.84;99289.23;1715799;80;25835;-73
2021/03/13 08:41:56;;;;;;;11.33;6.78;;;;;;;3.50;84.01;99288.70;1719167;80;25722;-73
2021/03/13 08:44:30;;;;;;;12.33;6.83;;;;;;;3.61;84.23;99283.32;1726295;80;28414;-75
2021/03/13 08:47:05;;;;;;;7.92;5.17;;;;;;;3.69;84.16;99273.55;1760423;79;25761;-74
2021/03/13 08:49:48;;;;;;;9.70;5.67;;;;;;;3.90;84.65;99278.39;1767998;78;25681;-73
2021/03/13 08:52:20;;;;;;;9.43;5.72;;;;;;;4.05;84.76;99276.91;1765717;78;25311;-74
2021/03/13 08:54:48;;;;;;;9.28;5.70;;;;;;;4.19;84.75;99271.68;1787514;78;25711;-73
2021/03/13 08:57:17;;;;;;;12.75;5.75;;;;;;;4.36;84.41;99271.30;1816606;77;25856;-74
2021/03/13 08:59:49;;;;;;;9.88;5.55;;;;;;;4.56;84.52;99260.29;1771548;79;25695;-74
2021/03/13 09:02:21;;;;;;;8.30;5.22;;;;;;;4.73;84.26;99259.39;1770977;78;25720;-73
2021/03/13 09:04:51;;;;;;;9.13;5.03;;;;;;;4.88;83.98;99248.80;1777836;78;25647;-73
2021/03/13 09:07:20;;;;;;;11.40;5.90;;;;;;;5.06;84.25;99254.34;1790140;78;25720;-74
2021/03/13 09:09:48;;;;;;;11.28;5.33;;;;;;;5.22;83.32;99251.00;1765521;79;25574;-74
2021/03/13 09:12:19;;;;;;;9.93;5.72;;;;;;;5.34;83.58;99255.70;1778373;78;25709;-75
2021/03/13 09:14:55;;;;;;;9.55;5.67;;;;;;;5.54;83.59;99251.56;1785074;78;25689;-75
2021/03/13 09:17:25;;;;;;;9.50;5.22;;;;;;;5.73;83.19;99253.84;1783829;78;26187;-74
2021/03/13 09:19:52;;;;;;;8.95;5.03;;;;;;;5.83;81.74;99258.05;1771671;78;31250;-76
2021/03/13 09:22:25;;;;;;;8.25;4.90;;;;;;;5.82;81.83;99253.36;1770427;78;26366;-76
2021/03/13 09:25:00;;;;;;;7.45;4.97;;;;;;;5.81;81.31;99256.09;1777188;78;26142;-75
2021/03/13 09:27:30;;;;;;;8.25;5.08;;;;;;;5.77;81.30;99251.73;1730411;80;25695;-75
2021/03/13 09:29:58;;;;;;;9.10;4.90;;;;;;;5.89;81.69;99254.34;1772965;78;25283;-75
2021/03/13 09:32:26;;;;;;;7.62;4.95;;;;;;;6.04;80.62;99248.03;1772743;78;25614;-74
2021/03/13 09:34:55;;;;;;;9.00;4.80;;;;;;;6.09;80.33;99263.12;1775713;78;25603;-73
2021/03/13 09:37:26;;;;;;;9.03;4.50;;;;;;;6.07;79.72;99262.47;1773023;79;25871;-74
2021/03/13 09:40:02;;;;;;;10.00;5.22;;;;;;;6.06;79.25;99267.34;1772475;78;25828;-74
2021/03/13 09:42:30;;;;;;;9.65;5.65;;;;;;;6.05;79.54;99263.91;1759668;79;25664;-75
2021/03/13 09:45:03;;;;;;;11.10;5.70;;;;;;;6.08;79.37;99260.98;1724471;79;46520;-75
2021/03/13 09:47:38;;;;;;;13.58;7.03;;;;;;;6.10;79.14;99256.45;1772713;79;25888;-75
2021/03/13 09:50:12;;;;;;;11.05;6.22;;;;;;;6.12;79.35;99254.52;1776669;77;25480;-75
2021/03/13 09:52:45;;;;;;;9.03;5.40;;;;;;;6.18;78.95;99248.66;1764398;79;25593;-75
2021/03/13 09:55:16;;;;;;;11.60;5.80;;;;;;;6.26;79.15;99245.25;1780418;78;25782;-75
2021/03/13 09:57:47;;;;;;;9.40;5.12;;;;;;;6.36;78.04;99239.89;1775102;78;26545;-74
2021/03/13 10:00:27;;;;;;;9.45;6.30;;;;;;;6.42;78.18;99233.55;1773214;79;25832;-75
2021/03/13 10:03:16;;;;;;;9.60;5.85;;;;;;;6.51;78.21;99240.01;1771858;78;25656;-75
2021/03/13 10:05:42;;;;;;;8.05;5.10;;;;;;;6.59;77.46;99244.69;1706333;81;26215;-74
2021/03/13 10:08:14;;;;;;;12.58;5.62;;;;;;;6.59;76.55;99243.39;1707517;81;26313;-75
2021/03/13 10:10:47;;;;;;;11.10;5.30;;;;;;;6.61;76.64;99241.44;1714948;81;25930;-74
2021/03/13 10:13:16;;;;;;;8.75;4.58;;;;;;;6.65;77.04;99240.11;1696731;81;25895;-74
2021/03/13 10:15:44;;;;;;;9.00;4.87;;;;;;;6.73;77.28;99235.88;1719393;81;25874;-74
2021/03/13 10:18:16;;;;;;;8.35;5.83;;;;;;;6.82;75.83;99247.38;1715662;82;25726;-75
2021/03/13 10:20:51;;;;;;;9.98;5.60;;;;;;;6.85;74.90;99236.66;1715302;82;26339;-74
2021/03/13 10:23:37;;;;;;;11.35;6.37;;;;;;;6.89;75.12;99242.31;1712678;82;25749;-74
2021/03/13 10:26:07;;;;;;;9.58;6.10;;;;;;;6.94;74.96;99245.72;1724045;81;25945;-75
2021/03/13 10:28:38;;;;;;;8.20;4.90;;;;;;;6.99;73.85;99242.12;1719896;81;25782;-75
2021/03/13 10:31:14;;;;;;;12.15;5.92;;;;;;;6.98;73.01;99234.80;1760539;78;25747;-74
2021/03/13 10:33:42;;;;;;;11.95;5.08;;;;;;;6.99;73.04;99233.03;1758191;80;25799;-75
2021/03/13 10:36:10;;;;;;;9.43;5.47;;;;;;;7.04;73.40;99233.33;1713028;80;25603;-75
2021/03/13 10:38:42;;;;;;;8.55;4.92;;;;;;;7.11;73.44;99231.16;1776614;80;25819;-75
2021/03/13 10:41:11;;;;;;;8.20;5.20;;;;;;;7.14;72.84;99235.20;1749797;79;25347;-75
2021/03/13 10:43:43;;;;;;;9.47;5.23;;;;;;;7.17;72.07;99231.46;1758178;78;25914;-69
2021/03/13 10:46:19;;;;;;;9.18;5.72;;;;;;;7.19;71.93;99225.12;1737800;79;25463;-69
2021/03/13 10:48:56;;;;;;;10.95;4.95;;;;;;;7.25;72.18;99219.72;1713889;79;25830;-69
2021/03/13 10:51:35;;;;;;;9.50;4.75;;;;;;;7.29;71.62;99218.41;1723581;80;26522;-67
2021/03/13 10:54:03;;;;;;;8.33;4.45;;;;;;;7.34;71.71;99221.30;1750071;80;25656;-69
2021/03/13 10:56:44;;;;;;;7.60;4.53;;;;;;;7.42;69.92;99210.02;1737606;79;25637;-69
2021/03/13 10:59:10;;;;;;;11.05;5.15;;;;;;;7.50;70.97;99212.56;1731952;80;25754;-68
2021/03/13 11:01:37;;;;;;;9.68;5.22;;;;;;;7.59;71.20;99214.14;1751114;79;26587;-69
2021/03/13 11:04:05;;;;;;;9.67;5.17;;;;;;;7.72;70.77;99216.97;1703760;79;25806;-69
2021/03/13 11:06:34;;;;;;;10.70;4.60;;;;;;;7.81;69.52;99210.41;1738234;78;26394;-68
2021/03/13 11:09:04;;;;;;;11.37;5.10;;;;;;;7.85;68.55;99211.66;1736846;79;25258;-68
2021/03/13 11:11:31;;;;;;;7.95;4.72;;;;;;;7.93;69.05;99213.69;1737112;79;25913;-68
2021/03/13 11:13:57;;;;;;;12.18;4.83;;;;;;;8.07;69.19;99201.69;1717164;80;26463;-68
2021/03/13 11:16:24;;;;;;;8.93;5.17;;;;;;;8.15;69.44;99205.52;1760630;78;25302;-68
2021/03/13 11:18:56;;;;;;;10.08;5.33;;;;;;;8.20;69.51;99204.49;1753358;79;26365;-68
2021/03/13 11:21:24;;;;;;;11.22;5.03;;;;;;;8.17;68.51;99202.75;1751240;79;26298;-68
2021/03/13 11:23:52;;;;;;;7.62;4.80;;;;;;;8.12;68.37;99200.66;1752030;79;25288;-68
2021/03/13 11:26:20;;;;;;;10.93;4.37;;;;;;;8.07;67.61;99201.69;1753244;79;26619;-75
2021/03/13 11:28:47;;;;;;;10.50;5.15;;;;;;;8.03;66.53;99202.24;1728235;81;25790;-75
2021/03/13 11:31:14;;;;;;;6.33;4.37;;;;;;;8.07;67.27;99196.48;1729562;80;25765;-75
2021/03/13 11:33:40;;;;;;;7.75;4.05;;;;;;;8.19;68.26;99197.67;1741590;80;25980;-75
2021/03/13 11:36:08;;;;;;;7.72;4.03;;;;;;;8.35;66.42;99181.09;1752076;80;25262;-74
2021/03/13 11:38:37;;;;;;;8.13;4.35;;;;;;;8.47;64.50;99188.47;1718707;81;26098;-76
2021/03/13 11:41:05;;;;;;;8.10;4.55;;;;;;;8.45;64.76;99189.44;1756318;80;26071;-75
2021/03/13 11:43:38;;;;;;;8.00;4.35;;;;;;;8.47;65.39;99181.96;1752790;80;26068;-75
2021/03/13 11:46:05;;;;;;;7.97;4.10;;;;;;;8.44;64.30;99181.83;1757150;80;25345;-75
2021/03/13 11:48:32;;;;;;;9.35;4.03;;;;;;;8.40;65.55;99180.09;1751638;80;25715;-75
2021/03/13 11:50:58;;;;;;;7.80;4.10;;;;;;;8.45;65.43;99174.31;1751911;80;25609;-75